イースター島 の空港の天気 - METARとTAF

マタベリ国際空港 ( SCIP / IPC ) - チリ イースター島
飛行場実況気象(Metar)
観測時間07/17 03:00 EAT (07/17 09:00 UTC)
風向・風速東 4m/s
視程10km以上
天気現象
全天の4割程度の雲 雲底高度 760m
気温19℃
湿度78%
気圧1026hPa
METARSCIP 170900Z 08007KT 9999 SCT025 19/15 Q1026 NOSIG
過去の天気等 Google飛行場航空写真 Wunderground天気予報

過去48時間のMETAR

飛行場予報(TAF)
発表時間: 7/16 22:28 EAT (7/17 04:28 UTC)
予報対象時間: 17日0時 EAT ~ 18日0時 EAT
風向・風速東 4m/s
視程10km以上
全天の4割程度の雲 雲底高度 760m
全天の4割程度の雲 雲底高度 7620m
17日3時 EAT ~ 17日6時 EAT に一時的に
風向・風速北東 6m/s
全天の8割程度の雲 雲底高度 610m
17日7時 EAT ~ 17日9時 EAT に徐々に
風向・風速北東 8m/s
全天の4割程度の雲 雲底高度 610m
全天の4割程度の雲 雲底高度 1220m
全天の8割程度の雲 雲底高度 7620m
17日15時 EAT ~ 17日21時 EAT に一時的に
風向・風速北北東 10m/s
視程8000m
天気現象弱いしゅう雨
全天の8割程度の雲 雲底高度 610m
TAF SCIP 170428Z 1706/1806 09007KT 9999 SCT025 SCT250 TN17/1712Z TX22/1719Z
TEMPO 1709/1712 05012KT BKN020
BECMG 1713/1715 05015KT SCT020 SCT040 BKN250
TEMPO 1721/1803 02020KT 8000 -SHRA BKN020